sensor_id;sensor_type;location;lat;lon;timestamp;P1;durP1;ratioP1;P2;durP2;ratioP2
12359;SDS011;6244;51.460;7.090;2023-09-19T00:00:42;7.40;;;3.00;;
12359;SDS011;6244;51.460;7.090;2023-09-19T00:05:41;10.13;;;2.90;;
12359;SDS011;6244;51.460;7.090;2023-09-19T00:10:39;5.05;;;2.78;;
12359;SDS011;6244;51.460;7.090;2023-09-19T00:15:38;5.82;;;2.92;;
12359;SDS011;6244;51.460;7.090;2023-09-19T00:20:36;7.95;;;2.97;;
12359;SDS011;6244;51.460;7.090;2023-09-19T00:25:33;5.43;;;3.15;;
12359;SDS011;6244;51.460;7.090;2023-09-19T00:30:32;6.63;;;2.78;;
12359;SDS011;6244;51.460;7.090;2023-09-19T00:35:29;8.00;;;3.22;;
12359;SDS011;6244;51.460;7.090;2023-09-19T00:40:26;8.20;;;3.25;;
12359;SDS011;6244;51.460;7.090;2023-09-19T00:45:24;5.32;;;3.13;;
12359;SDS011;6244;51.460;7.090;2023-09-19T00:50:22;6.45;;;3.15;;
12359;SDS011;6244;51.460;7.090;2023-09-19T00:55:21;8.60;;;3.08;;
12359;SDS011;6244;51.460;7.090;2023-09-19T01:00:20;5.93;;;2.70;;
12359;SDS011;6244;51.460;7.090;2023-09-19T01:05:18;8.25;;;3.13;;
12359;SDS011;6244;51.460;7.090;2023-09-19T01:10:15;8.48;;;3.10;;
12359;SDS011;6244;51.460;7.090;2023-09-19T01:15:20;5.93;;;3.17;;
12359;SDS011;6244;51.460;7.090;2023-09-19T01:20:30;5.40;;;2.75;;
12359;SDS011;6244;51.460;7.090;2023-09-19T01:25:37;8.82;;;3.35;;
12359;SDS011;6244;51.460;7.090;2023-09-19T01:30:49;6.47;;;2.70;;
12359;SDS011;6244;51.460;7.090;2023-09-19T01:35:53;7.90;;;2.83;;
12359;SDS011;6244;51.460;7.090;2023-09-19T01:40:54;8.48;;;2.75;;
12359;SDS011;6244;51.460;7.090;2023-09-19T01:46:02;5.70;;;3.38;;
12359;SDS011;6244;51.460;7.090;2023-09-19T01:51:06;8.18;;;3.30;;
12359;SDS011;6244;51.460;7.090;2023-09-19T01:56:05;15.73;;;3.10;;
12359;SDS011;6244;51.460;7.090;2023-09-19T02:01:09;7.68;;;2.85;;
12359;SDS011;6244;51.460;7.090;2023-09-19T02:06:13;6.40;;;2.80;;
12359;SDS011;6244;51.460;7.090;2023-09-19T02:11:11;5.90;;;2.72;;
12359;SDS011;6244;51.460;7.090;2023-09-19T02:16:09;9.10;;;3.30;;
12359;SDS011;6244;51.460;7.090;2023-09-19T02:21:07;9.75;;;3.22;;
12359;SDS011;6244;51.460;7.090;2023-09-19T02:26:05;9.00;;;3.00;;
12359;SDS011;6244;51.460;7.090;2023-09-19T02:31:01;5.55;;;3.33;;
12359;SDS011;6244;51.460;7.090;2023-09-19T02:36:01;6.75;;;2.45;;
12359;SDS011;6244;51.460;7.090;2023-09-19T02:40:59;26.20;;;4.95;;
12359;SDS011;6244;51.460;7.090;2023-09-19T02:45:55;9.85;;;3.28;;
12359;SDS011;6244;51.460;7.090;2023-09-19T02:50:52;8.55;;;3.40;;
12359;SDS011;6244;51.460;7.090;2023-09-19T02:55:50;6.97;;;3.40;;
12359;SDS011;6244;51.460;7.090;2023-09-19T03:00:49;8.57;;;3.05;;
12359;SDS011;6244;51.460;7.090;2023-09-19T03:05:46;10.70;;;3.33;;
12359;SDS011;6244;51.460;7.090;2023-09-19T03:10:44;11.43;;;3.15;;
12359;SDS011;6244;51.460;7.090;2023-09-19T03:15:43;10.23;;;2.88;;
12359;SDS011;6244;51.460;7.090;2023-09-19T03:20:41;9.40;;;2.60;;
12359;SDS011;6244;51.460;7.090;2023-09-19T03:25:38;7.55;;;2.78;;
12359;SDS011;6244;51.460;7.090;2023-09-19T03:30:35;8.85;;;2.88;;
12359;SDS011;6244;51.460;7.090;2023-09-19T03:35:35;5.32;;;2.75;;
12359;SDS011;6244;51.460;7.090;2023-09-19T03:40:31;8.18;;;3.45;;
12359;SDS011;6244;51.460;7.090;2023-09-19T03:45:28;7.75;;;3.15;;
12359;SDS011;6244;51.460;7.090;2023-09-19T03:50:25;8.45;;;2.70;;
12359;SDS011;6244;51.460;7.090;2023-09-19T03:55:22;9.30;;;2.78;;
12359;SDS011;6244;51.460;7.090;2023-09-19T04:00:19;7.32;;;2.97;;
12359;SDS011;6244;51.460;7.090;2023-09-19T04:05:19;7.22;;;2.78;;
12359;SDS011;6244;51.460;7.090;2023-09-19T04:10:15;6.45;;;3.05;;
12359;SDS011;6244;51.460;7.090;2023-09-19T04:15:13;8.57;;;3.67;;
12359;SDS011;6244;51.460;7.090;2023-09-19T04:20:10;6.63;;;2.38;;
12359;SDS011;6244;51.460;7.090;2023-09-19T04:25:08;4.32;;;2.80;;
12359;SDS011;6244;51.460;7.090;2023-09-19T04:30:06;6.25;;;2.72;;
12359;SDS011;6244;51.460;7.090;2023-09-19T04:35:08;5.68;;;3.17;;
12359;SDS011;6244;51.460;7.090;2023-09-19T04:40:06;5.53;;;2.67;;
12359;SDS011;6244;51.460;7.090;2023-09-19T04:45:07;10.02;;;3.72;;
12359;SDS011;6244;51.460;7.090;2023-09-19T04:50:08;8.75;;;3.40;;
12359;SDS011;6244;51.460;7.090;2023-09-19T05:00:05;14.18;;;3.17;;
12359;SDS011;6244;51.460;7.090;2023-09-19T05:05:09;18.93;;;3.00;;
12359;SDS011;6244;51.460;7.090;2023-09-19T05:10:06;4.82;;;2.65;;
12359;SDS011;6244;51.460;7.090;2023-09-19T05:15:04;5.72;;;2.70;;
12359;SDS011;6244;51.460;7.090;2023-09-19T05:20:02;9.68;;;3.20;;
12359;SDS011;6244;51.460;7.090;2023-09-19T05:25:11;9.73;;;2.92;;
12359;SDS011;6244;51.460;7.090;2023-09-19T05:30:11;4.97;;;3.00;;
12359;SDS011;6244;51.460;7.090;2023-09-19T05:35:10;7.35;;;3.15;;
12359;SDS011;6244;51.460;7.090;2023-09-19T05:40:08;8.57;;;2.65;;
12359;SDS011;6244;51.460;7.090;2023-09-19T05:45:07;9.10;;;3.25;;
12359;SDS011;6244;51.460;7.090;2023-09-19T05:50:07;6.38;;;2.90;;
12359;SDS011;6244;51.460;7.090;2023-09-19T05:55:05;7.20;;;3.05;;
12359;SDS011;6244;51.460;7.090;2023-09-19T06:00:02;7.00;;;2.85;;
12359;SDS011;6244;51.460;7.090;2023-09-19T06:05:05;11.23;;;3.20;;
12359;SDS011;6244;51.460;7.090;2023-09-19T06:10:05;10.85;;;3.67;;
12359;SDS011;6244;51.460;7.090;2023-09-19T06:15:02;9.70;;;3.03;;
12359;SDS011;6244;51.460;7.090;2023-09-19T06:20:00;7.63;;;2.65;;
12359;SDS011;6244;51.460;7.090;2023-09-19T06:25:00;7.32;;;3.05;;
12359;SDS011;6244;51.460;7.090;2023-09-19T06:29:57;12.20;;;3.00;;
12359;SDS011;6244;51.460;7.090;2023-09-19T06:34:54;10.77;;;3.13;;
12359;SDS011;6244;51.460;7.090;2023-09-19T06:39:50;11.68;;;3.28;;
12359;SDS011;6244;51.460;7.090;2023-09-19T06:44:48;9.68;;;3.30;;
12359;SDS011;6244;51.460;7.090;2023-09-19T06:49:45;8.40;;;3.83;;
12359;SDS011;6244;51.460;7.090;2023-09-19T06:54:56;8.00;;;3.10;;
12359;SDS011;6244;51.460;7.090;2023-09-19T06:59:54;11.23;;;3.05;;
12359;SDS011;6244;51.460;7.090;2023-09-19T07:04:50;6.93;;;2.65;;
12359;SDS011;6244;51.460;7.090;2023-09-19T07:09:47;8.40;;;2.95;;
12359;SDS011;6244;51.460;7.090;2023-09-19T07:14:44;10.27;;;3.35;;
12359;SDS011;6244;51.460;7.090;2023-09-19T07:19:44;8.73;;;3.25;;
12359;SDS011;6244;51.460;7.090;2023-09-19T07:24:43;10.05;;;2.92;;
12359;SDS011;6244;51.460;7.090;2023-09-19T07:29:39;8.75;;;3.03;;
12359;SDS011;6244;51.460;7.090;2023-09-19T07:34:36;7.35;;;2.50;;
12359;SDS011;6244;51.460;7.090;2023-09-19T07:39:35;7.90;;;2.80;;
12359;SDS011;6244;51.460;7.090;2023-09-19T07:44:32;8.18;;;2.80;;
12359;SDS011;6244;51.460;7.090;2023-09-19T07:49:28;9.65;;;2.80;;
12359;SDS011;6244;51.460;7.090;2023-09-19T07:54:25;8.18;;;2.83;;
12359;SDS011;6244;51.460;7.090;2023-09-19T07:59:26;6.90;;;3.30;;
12359;SDS011;6244;51.460;7.090;2023-09-19T08:04:23;7.78;;;2.70;;
12359;SDS011;6244;51.460;7.090;2023-09-19T08:09:21;14.60;;;3.78;;
12359;SDS011;6244;51.460;7.090;2023-09-19T08:14:18;8.05;;;2.80;;
12359;SDS011;6244;51.460;7.090;2023-09-19T08:19:16;9.25;;;3.08;;
12359;SDS011;6244;51.460;7.090;2023-09-19T08:24:12;21.08;;;3.67;;
12359;SDS011;6244;51.460;7.090;2023-09-19T08:29:10;5.95;;;2.97;;
12359;SDS011;6244;51.460;7.090;2023-09-19T08:34:07;9.73;;;3.00;;
12359;SDS011;6244;51.460;7.090;2023-09-19T08:39:05;7.50;;;2.63;;
12359;SDS011;6244;51.460;7.090;2023-09-19T08:44:01;7.28;;;2.83;;
12359;SDS011;6244;51.460;7.090;2023-09-19T08:49:01;7.88;;;2.70;;
12359;SDS011;6244;51.460;7.090;2023-09-19T08:59:02;9.13;;;2.42;;
12359;SDS011;6244;51.460;7.090;2023-09-19T09:04:00;12.32;;;2.95;;
12359;SDS011;6244;51.460;7.090;2023-09-19T09:08:57;8.02;;;3.10;;
12359;SDS011;6244;51.460;7.090;2023-09-19T09:13:54;8.63;;;2.85;;
12359;SDS011;6244;51.460;7.090;2023-09-19T09:18:53;5.78;;;2.80;;
12359;SDS011;6244;51.460;7.090;2023-09-19T09:23:50;10.32;;;3.10;;
12359;SDS011;6244;51.460;7.090;2023-09-19T09:28:48;6.97;;;3.28;;
12359;SDS011;6244;51.460;7.090;2023-09-19T09:33:53;7.03;;;2.85;;
12359;SDS011;6244;51.460;7.090;2023-09-19T09:38:50;7.88;;;3.03;;
12359;SDS011;6244;51.460;7.090;2023-09-19T09:43:50;9.32;;;3.03;;
12359;SDS011;6244;51.460;7.090;2023-09-19T09:48:47;9.05;;;3.58;;
12359;SDS011;6244;51.460;7.090;2023-09-19T09:54:11;9.32;;;3.00;;
12359;SDS011;6244;51.460;7.090;2023-09-19T09:59:09;7.15;;;2.80;;
12359;SDS011;6244;51.460;7.090;2023-09-19T10:04:12;7.28;;;2.70;;
12359;SDS011;6244;51.460;7.090;2023-09-19T10:09:25;9.35;;;3.22;;
12359;SDS011;6244;51.460;7.090;2023-09-19T10:14:25;8.48;;;3.17;;
12359;SDS011;6244;51.460;7.090;2023-09-19T10:19:28;6.50;;;2.75;;
12359;SDS011;6244;51.460;7.090;2023-09-19T10:24:30;6.03;;;2.88;;
12359;SDS011;6244;51.460;7.090;2023-09-19T10:29:29;7.35;;;2.65;;
12359;SDS011;6244;51.460;7.090;2023-09-19T10:34:30;8.13;;;2.95;;
12359;SDS011;6244;51.460;7.090;2023-09-19T10:39:31;6.63;;;2.63;;
12359;SDS011;6244;51.460;7.090;2023-09-19T10:44:28;4.95;;;2.25;;
12359;SDS011;6244;51.460;7.090;2023-09-19T10:49:27;6.53;;;2.60;;
12359;SDS011;6244;51.460;7.090;2023-09-19T10:54:26;7.65;;;2.72;;
12359;SDS011;6244;51.460;7.090;2023-09-19T10:59:28;6.88;;;2.78;;
12359;SDS011;6244;51.460;7.090;2023-09-19T11:04:30;6.85;;;2.90;;
12359;SDS011;6244;51.460;7.090;2023-09-19T11:09:48;12.52;;;3.67;;
12359;SDS011;6244;51.460;7.090;2023-09-19T11:14:49;5.55;;;2.65;;
12359;SDS011;6244;51.460;7.090;2023-09-19T11:25:43;8.15;;;2.80;;
12359;SDS011;6244;51.460;7.090;2023-09-19T11:30:45;8.30;;;2.80;;
12359;SDS011;6244;51.460;7.090;2023-09-19T11:35:58;8.68;;;2.65;;
12359;SDS011;6244;51.460;7.090;2023-09-19T11:46:27;5.03;;;2.65;;
12359;SDS011;6244;51.460;7.090;2023-09-19T11:51:24;5.68;;;2.33;;
12359;SDS011;6244;51.460;7.090;2023-09-19T11:56:23;6.68;;;3.20;;
12359;SDS011;6244;51.460;7.090;2023-09-19T12:01:24;9.27;;;2.85;;
12359;SDS011;6244;51.460;7.090;2023-09-19T12:06:25;7.87;;;3.17;;
12359;SDS011;6244;51.460;7.090;2023-09-19T12:11:23;7.07;;;2.63;;
12359;SDS011;6244;51.460;7.090;2023-09-19T12:16:22;7.57;;;2.50;;
12359;SDS011;6244;51.460;7.090;2023-09-19T12:21:27;9.07;;;2.90;;
12359;SDS011;6244;51.460;7.090;2023-09-19T12:26:26;6.13;;;2.38;;
12359;SDS011;6244;51.460;7.090;2023-09-19T12:31:24;6.25;;;2.70;;
12359;SDS011;6244;51.460;7.090;2023-09-19T12:36:22;6.28;;;2.50;;
12359;SDS011;6244;51.460;7.090;2023-09-19T12:41:25;6.38;;;2.70;;
12359;SDS011;6244;51.460;7.090;2023-09-19T12:46:22;6.07;;;2.50;;
12359;SDS011;6244;51.460;7.090;2023-09-19T12:51:20;6.50;;;2.45;;
12359;SDS011;6244;51.460;7.090;2023-09-19T12:56:19;7.03;;;2.75;;
12359;SDS011;6244;51.460;7.090;2023-09-19T13:01:19;5.25;;;2.42;;
12359;SDS011;6244;51.460;7.090;2023-09-19T13:06:34;4.22;;;2.20;;
12359;SDS011;6244;51.460;7.090;2023-09-19T13:11:35;6.28;;;2.35;;
12359;SDS011;6244;51.460;7.090;2023-09-19T13:16:35;5.25;;;2.38;;
12359;SDS011;6244;51.460;7.090;2023-09-19T13:21:51;6.20;;;2.63;;
12359;SDS011;6244;51.460;7.090;2023-09-19T13:26:49;5.97;;;2.35;;
12359;SDS011;6244;51.460;7.090;2023-09-19T13:31:48;6.53;;;2.00;;
12359;SDS011;6244;51.460;7.090;2023-09-19T13:36:45;4.55;;;2.05;;
12359;SDS011;6244;51.460;7.090;2023-09-19T13:41:43;5.68;;;2.15;;
12359;SDS011;6244;51.460;7.090;2023-09-19T13:46:41;5.57;;;2.40;;
12359;SDS011;6244;51.460;7.090;2023-09-19T13:51:42;5.07;;;2.38;;
12359;SDS011;6244;51.460;7.090;2023-09-19T13:56:39;3.90;;;2.10;;
12359;SDS011;6244;51.460;7.090;2023-09-19T14:01:35;5.30;;;2.70;;
12359;SDS011;6244;51.460;7.090;2023-09-19T14:06:32;3.00;;;1.80;;
12359;SDS011;6244;51.460;7.090;2023-09-19T14:11:29;3.65;;;1.88;;
12359;SDS011;6244;51.460;7.090;2023-09-19T14:16:26;4.30;;;1.92;;
12359;SDS011;6244;51.460;7.090;2023-09-19T14:21:25;7.32;;;1.80;;
12359;SDS011;6244;51.460;7.090;2023-09-19T14:26:22;5.68;;;2.50;;
12359;SDS011;6244;51.460;7.090;2023-09-19T14:31:20;3.28;;;1.83;;
12359;SDS011;6244;51.460;7.090;2023-09-19T14:36:17;5.20;;;2.50;;
12359;SDS011;6244;51.460;7.090;2023-09-19T14:41:14;3.67;;;1.92;;
12359;SDS011;6244;51.460;7.090;2023-09-19T14:46:10;4.63;;;1.45;;
12359;SDS011;6244;51.460;7.090;2023-09-19T14:51:08;6.78;;;2.00;;
12359;SDS011;6244;51.460;7.090;2023-09-19T14:56:07;4.60;;;2.28;;
12359;SDS011;6244;51.460;7.090;2023-09-19T15:01:05;4.30;;;1.85;;
12359;SDS011;6244;51.460;7.090;2023-09-19T15:06:02;4.18;;;1.88;;
12359;SDS011;6244;51.460;7.090;2023-09-19T15:11:02;2.00;;;1.50;;
12359;SDS011;6244;51.460;7.090;2023-09-19T15:16:02;3.53;;;1.58;;
12359;SDS011;6244;51.460;7.090;2023-09-19T15:21:00;4.10;;;1.70;;
12359;SDS011;6244;51.460;7.090;2023-09-19T15:25:57;6.57;;;2.35;;
12359;SDS011;6244;51.460;7.090;2023-09-19T15:30:58;3.65;;;1.55;;
12359;SDS011;6244;51.460;7.090;2023-09-19T15:36:02;2.10;;;1.40;;
12359;SDS011;6244;51.460;7.090;2023-09-19T15:40:59;3.10;;;1.55;;
12359;SDS011;6244;51.460;7.090;2023-09-19T15:45:56;2.85;;;1.45;;
12359;SDS011;6244;51.460;7.090;2023-09-19T15:50:54;2.22;;;1.23;;
12359;SDS011;6244;51.460;7.090;2023-09-19T15:55:50;4.57;;;1.30;;
12359;SDS011;6244;51.460;7.090;2023-09-19T16:00:47;2.33;;;1.15;;
12359;SDS011;6244;51.460;7.090;2023-09-19T16:05:44;3.28;;;1.58;;
12359;SDS011;6244;51.460;7.090;2023-09-19T16:10:42;3.30;;;1.30;;
12359;SDS011;6244;51.460;7.090;2023-09-19T16:15:41;2.88;;;1.58;;
12359;SDS011;6244;51.460;7.090;2023-09-19T16:20:39;2.47;;;1.38;;
12359;SDS011;6244;51.460;7.090;2023-09-19T16:25:35;2.55;;;1.65;;
12359;SDS011;6244;51.460;7.090;2023-09-19T16:30:33;2.70;;;1.70;;
12359;SDS011;6244;51.460;7.090;2023-09-19T16:35:30;4.10;;;1.92;;
12359;SDS011;6244;51.460;7.090;2023-09-19T16:40:26;3.83;;;1.52;;
12359;SDS011;6244;51.460;7.090;2023-09-19T16:45:23;3.53;;;2.00;;
12359;SDS011;6244;51.460;7.090;2023-09-19T16:50:21;4.40;;;1.60;;
12359;SDS011;6244;51.460;7.090;2023-09-19T16:55:18;3.38;;;1.40;;
12359;SDS011;6244;51.460;7.090;2023-09-19T17:00:16;3.90;;;1.50;;
12359;SDS011;6244;51.460;7.090;2023-09-19T17:05:14;2.65;;;1.40;;
12359;SDS011;6244;51.460;7.090;2023-09-19T17:10:14;3.90;;;1.60;;
12359;SDS011;6244;51.460;7.090;2023-09-19T17:15:11;2.20;;;1.15;;
12359;SDS011;6244;51.460;7.090;2023-09-19T17:20:08;4.70;;;1.85;;
12359;SDS011;6244;51.460;7.090;2023-09-19T17:25:05;2.67;;;1.42;;
12359;SDS011;6244;51.460;7.090;2023-09-19T17:30:04;2.20;;;1.58;;
12359;SDS011;6244;51.460;7.090;2023-09-19T17:35:02;4.18;;;2.00;;
12359;SDS011;6244;51.460;7.090;2023-09-19T17:39:59;3.97;;;1.92;;
12359;SDS011;6244;51.460;7.090;2023-09-19T17:44:59;2.70;;;1.58;;
12359;SDS011;6244;51.460;7.090;2023-09-19T17:49:57;4.43;;;1.80;;
12359;SDS011;6244;51.460;7.090;2023-09-19T17:54:56;3.28;;;1.90;;
12359;SDS011;6244;51.460;7.090;2023-09-19T17:59:53;3.90;;;2.17;;
12359;SDS011;6244;51.460;7.090;2023-09-19T18:04:50;4.05;;;1.42;;
12359;SDS011;6244;51.460;7.090;2023-09-19T18:09:47;3.08;;;1.55;;
12359;SDS011;6244;51.460;7.090;2023-09-19T18:14:44;4.35;;;1.83;;
12359;SDS011;6244;51.460;7.090;2023-09-19T18:19:41;3.40;;;2.20;;
12359;SDS011;6244;51.460;7.090;2023-09-19T18:24:37;4.10;;;1.80;;
12359;SDS011;6244;51.460;7.090;2023-09-19T18:29:36;2.28;;;1.63;;
12359;SDS011;6244;51.460;7.090;2023-09-19T18:34:37;2.08;;;1.58;;
12359;SDS011;6244;51.460;7.090;2023-09-19T18:39:33;4.90;;;1.90;;
12359;SDS011;6244;51.460;7.090;2023-09-19T18:44:31;4.57;;;1.92;;
12359;SDS011;6244;51.460;7.090;2023-09-19T18:49:29;3.95;;;1.92;;
12359;SDS011;6244;51.460;7.090;2023-09-19T18:54:26;3.03;;;1.98;;
12359;SDS011;6244;51.460;7.090;2023-09-19T18:59:24;4.22;;;1.70;;
12359;SDS011;6244;51.460;7.090;2023-09-19T19:04:20;3.15;;;1.85;;
12359;SDS011;6244;51.460;7.090;2023-09-19T19:09:20;5.20;;;2.20;;
12359;SDS011;6244;51.460;7.090;2023-09-19T19:14:16;4.05;;;1.80;;
12359;SDS011;6244;51.460;7.090;2023-09-19T19:19:13;5.57;;;1.63;;
12359;SDS011;6244;51.460;7.090;2023-09-19T19:24:11;4.15;;;1.90;;
12359;SDS011;6244;51.460;7.090;2023-09-19T19:29:10;4.28;;;2.00;;
12359;SDS011;6244;51.460;7.090;2023-09-19T19:34:07;3.60;;;2.20;;
12359;SDS011;6244;51.460;7.090;2023-09-19T19:39:04;3.80;;;2.40;;
12359;SDS011;6244;51.460;7.090;2023-09-19T19:44:01;3.70;;;1.90;;
12359;SDS011;6244;51.460;7.090;2023-09-19T19:48:59;2.88;;;1.52;;
12359;SDS011;6244;51.460;7.090;2023-09-19T19:53:56;3.33;;;1.95;;
12359;SDS011;6244;51.460;7.090;2023-09-19T19:58:52;4.10;;;2.05;;
12359;SDS011;6244;51.460;7.090;2023-09-19T20:03:49;2.70;;;1.70;;
12359;SDS011;6244;51.460;7.090;2023-09-19T20:08:47;4.50;;;3.90;;
12359;SDS011;6244;51.460;7.090;2023-09-19T20:13:44;4.50;;;2.40;;
12359;SDS011;6244;51.460;7.090;2023-09-19T20:18:41;2.92;;;1.55;;
12359;SDS011;6244;51.460;7.090;2023-09-19T20:23:37;3.53;;;2.03;;
12359;SDS011;6244;51.460;7.090;2023-09-19T20:28:36;5.13;;;2.08;;
12359;SDS011;6244;51.460;7.090;2023-09-19T20:33:34;4.82;;;2.00;;
12359;SDS011;6244;51.460;7.090;2023-09-19T20:38:32;4.35;;;2.15;;
12359;SDS011;6244;51.460;7.090;2023-09-19T20:43:29;5.90;;;2.17;;
12359;SDS011;6244;51.460;7.090;2023-09-19T20:48:29;7.07;;;2.40;;
12359;SDS011;6244;51.460;7.090;2023-09-19T20:53:26;4.97;;;2.15;;
12359;SDS011;6244;51.460;7.090;2023-09-19T20:58:23;16.33;;;2.65;;
12359;SDS011;6244;51.460;7.090;2023-09-19T21:03:20;4.88;;;1.95;;
12359;SDS011;6244;51.460;7.090;2023-09-19T21:08:18;9.70;;;2.10;;
12359;SDS011;6244;51.460;7.090;2023-09-19T21:19:16;2.92;;;1.40;;
12359;SDS011;6244;51.460;7.090;2023-09-19T21:29:32;1.17;;;0.90;;
12359;SDS011;6244;51.460;7.090;2023-09-19T21:34:29;2.15;;;1.10;;
12359;SDS011;6244;51.460;7.090;2023-09-19T21:39:25;0.73;;;0.68;;
12359;SDS011;6244;51.460;7.090;2023-09-19T21:44:23;1.17;;;0.82;;
12359;SDS011;6244;51.460;7.090;2023-09-19T21:49:20;1.15;;;0.70;;
12359;SDS011;6244;51.460;7.090;2023-09-19T21:54:16;0.70;;;0.70;;
12359;SDS011;6244;51.460;7.090;2023-09-19T21:59:14;2.10;;;1.48;;
12359;SDS011;6244;51.460;7.090;2023-09-19T22:04:12;0.55;;;0.40;;
12359;SDS011;6244;51.460;7.090;2023-09-19T22:09:08;0.45;;;0.40;;
12359;SDS011;6244;51.460;7.090;2023-09-19T22:14:05;0.45;;;0.45;;
12359;SDS011;6244;51.460;7.090;2023-09-19T22:19:02;0.88;;;0.70;;
12359;SDS011;6244;51.460;7.090;2023-09-19T22:23:59;0.30;;;0.30;;
12359;SDS011;6244;51.460;7.090;2023-09-19T22:28:56;0.73;;;0.60;;
12359;SDS011;6244;51.460;7.090;2023-09-19T22:33:53;1.52;;;0.50;;
12359;SDS011;6244;51.460;7.090;2023-09-19T22:38:51;0.73;;;0.50;;
12359;SDS011;6244;51.460;7.090;2023-09-19T22:43:50;0.60;;;0.60;;
12359;SDS011;6244;51.460;7.090;2023-09-19T22:48:50;0.53;;;0.53;;
12359;SDS011;6244;51.460;7.090;2023-09-19T22:53:47;0.88;;;0.68;;
12359;SDS011;6244;51.460;7.090;2023-09-19T22:58:50;0.35;;;0.35;;
12359;SDS011;6244;51.460;7.090;2023-09-19T23:03:46;0.65;;;0.55;;
12359;SDS011;6244;51.460;7.090;2023-09-19T23:08:48;1.05;;;0.77;;
12359;SDS011;6244;51.460;7.090;2023-09-19T23:13:47;0.75;;;0.57;;
12359;SDS011;6244;51.460;7.090;2023-09-19T23:18:46;0.60;;;0.60;;
12359;SDS011;6244;51.460;7.090;2023-09-19T23:23:45;2.50;;;0.57;;
12359;SDS011;6244;51.460;7.090;2023-09-19T23:28:42;1.92;;;0.82;;
12359;SDS011;6244;51.460;7.090;2023-09-19T23:33:44;0.70;;;0.70;;
12359;SDS011;6244;51.460;7.090;2023-09-19T23:38:41;1.25;;;1.00;;
12359;SDS011;6244;51.460;7.090;2023-09-19T23:43:37;0.47;;;0.47;;
12359;SDS011;6244;51.460;7.090;2023-09-19T23:48:34;0.25;;;0.25;;
12359;SDS011;6244;51.460;7.090;2023-09-19T23:53:32;0.70;;;0.70;;
12359;SDS011;6244;51.460;7.090;2023-09-19T23:58:29;0.57;;;0.50;;
